sensor_id;sensor_type;location;lat;lon;timestamp;P1;durP1;ratioP1;P2;durP2;ratioP2
67041;SDS011;53949;47.790;18.750;2024-03-07T00:01:43;29.65;;;14.82;;
67041;SDS011;53949;47.790;18.750;2024-03-07T00:04:46;24.42;;;13.35;;
67041;SDS011;53949;47.790;18.750;2024-03-07T00:07:49;22.55;;;13.60;;
67041;SDS011;53949;47.790;18.750;2024-03-07T00:10:53;27.37;;;14.60;;
67041;SDS011;53949;47.790;18.750;2024-03-07T00:13:56;23.08;;;12.70;;
67041;SDS011;53949;47.790;18.750;2024-03-07T00:16:59;28.65;;;13.95;;
67041;SDS011;53949;47.790;18.750;2024-03-07T00:20:02;30.98;;;14.43;;
67041;SDS011;53949;47.790;18.750;2024-03-07T00:23:12;26.35;;;15.05;;
67041;SDS011;53949;47.790;18.750;2024-03-07T00:26:16;31.35;;;13.27;;
67041;SDS011;53949;47.790;18.750;2024-03-07T00:29:19;26.87;;;13.23;;
67041;SDS011;53949;47.790;18.750;2024-03-07T00:32:23;27.52;;;14.32;;
67041;SDS011;53949;47.790;18.750;2024-03-07T00:35:27;25.02;;;13.45;;
67041;SDS011;53949;47.790;18.750;2024-03-07T00:38:30;25.80;;;13.43;;
67041;SDS011;53949;47.790;18.750;2024-03-07T00:41:33;22.65;;;12.85;;
67041;SDS011;53949;47.790;18.750;2024-03-07T00:44:37;23.77;;;13.43;;
67041;SDS011;53949;47.790;18.750;2024-03-07T00:47:41;31.10;;;14.57;;
67041;SDS011;53949;47.790;18.750;2024-03-07T00:50:45;24.87;;;13.48;;
67041;SDS011;53949;47.790;18.750;2024-03-07T00:53:48;27.05;;;13.82;;
67041;SDS011;53949;47.790;18.750;2024-03-07T00:56:53;31.57;;;15.07;;
67041;SDS011;53949;47.790;18.750;2024-03-07T00:59:57;27.92;;;14.63;;
67041;SDS011;53949;47.790;18.750;2024-03-07T01:03:00;30.85;;;14.57;;
67041;SDS011;53949;47.790;18.750;2024-03-07T01:06:04;26.55;;;14.75;;
67041;SDS011;53949;47.790;18.750;2024-03-07T01:09:06;26.55;;;14.82;;
67041;SDS011;53949;47.790;18.750;2024-03-07T01:12:17;25.90;;;13.70;;
67041;SDS011;53949;47.790;18.750;2024-03-07T01:15:23;30.83;;;14.13;;
67041;SDS011;53949;47.790;18.750;2024-03-07T01:18:26;29.08;;;14.55;;
67041;SDS011;53949;47.790;18.750;2024-03-07T01:21:29;25.52;;;13.93;;
67041;SDS011;53949;47.790;18.750;2024-03-07T01:24:35;25.62;;;13.70;;
67041;SDS011;53949;47.790;18.750;2024-03-07T01:27:38;26.67;;;13.65;;
67041;SDS011;53949;47.790;18.750;2024-03-07T01:30:41;31.17;;;14.60;;
67041;SDS011;53949;47.790;18.750;2024-03-07T01:33:44;25.80;;;14.35;;
67041;SDS011;53949;47.790;18.750;2024-03-07T01:36:47;23.02;;;13.07;;
67041;SDS011;53949;47.790;18.750;2024-03-07T01:39:50;26.10;;;13.93;;
67041;SDS011;53949;47.790;18.750;2024-03-07T01:42:53;27.90;;;14.20;;
67041;SDS011;53949;47.790;18.750;2024-03-07T01:45:57;27.98;;;14.15;;
67041;SDS011;53949;47.790;18.750;2024-03-07T01:49:03;28.40;;;14.77;;
67041;SDS011;53949;47.790;18.750;2024-03-07T01:52:10;24.92;;;14.52;;
67041;SDS011;53949;47.790;18.750;2024-03-07T01:55:14;30.05;;;15.18;;
67041;SDS011;53949;47.790;18.750;2024-03-07T01:58:18;26.98;;;14.68;;
67041;SDS011;53949;47.790;18.750;2024-03-07T02:01:23;26.58;;;14.27;;
67041;SDS011;53949;47.790;18.750;2024-03-07T02:04:26;27.10;;;13.70;;
67041;SDS011;53949;47.790;18.750;2024-03-07T02:07:29;24.02;;;13.38;;
67041;SDS011;53949;47.790;18.750;2024-03-07T02:10:33;28.58;;;14.82;;
67041;SDS011;53949;47.790;18.750;2024-03-07T02:13:36;29.48;;;16.00;;
67041;SDS011;53949;47.790;18.750;2024-03-07T02:16:40;28.30;;;15.15;;
67041;SDS011;53949;47.790;18.750;2024-03-07T02:19:43;30.37;;;15.57;;
67041;SDS011;53949;47.790;18.750;2024-03-07T02:22:46;26.80;;;14.60;;
67041;SDS011;53949;47.790;18.750;2024-03-07T02:25:49;30.42;;;14.93;;
67041;SDS011;53949;47.790;18.750;2024-03-07T02:28:52;25.10;;;14.40;;
67041;SDS011;53949;47.790;18.750;2024-03-07T02:31:55;30.62;;;14.85;;
67041;SDS011;53949;47.790;18.750;2024-03-07T02:34:59;27.05;;;14.13;;
67041;SDS011;53949;47.790;18.750;2024-03-07T02:38:02;26.50;;;14.43;;
67041;SDS011;53949;47.790;18.750;2024-03-07T02:41:06;28.48;;;14.52;;
67041;SDS011;53949;47.790;18.750;2024-03-07T02:44:09;33.60;;;17.62;;
67041;SDS011;53949;47.790;18.750;2024-03-07T02:47:15;32.17;;;17.15;;
67041;SDS011;53949;47.790;18.750;2024-03-07T02:50:20;33.40;;;17.62;;
67041;SDS011;53949;47.790;18.750;2024-03-07T02:53:24;36.17;;;17.87;;
67041;SDS011;53949;47.790;18.750;2024-03-07T02:56:28;33.60;;;16.73;;
67041;SDS011;53949;47.790;18.750;2024-03-07T02:59:31;36.55;;;17.85;;
67041;SDS011;53949;47.790;18.750;2024-03-07T03:02:34;36.33;;;17.70;;
67041;SDS011;53949;47.790;18.750;2024-03-07T03:05:37;35.30;;;17.87;;
67041;SDS011;53949;47.790;18.750;2024-03-07T03:08:41;34.65;;;17.37;;
67041;SDS011;53949;47.790;18.750;2024-03-07T03:11:44;34.08;;;17.55;;
67041;SDS011;53949;47.790;18.750;2024-03-07T03:14:47;33.55;;;16.62;;
67041;SDS011;53949;47.790;18.750;2024-03-07T03:17:51;36.90;;;16.67;;
67041;SDS011;53949;47.790;18.750;2024-03-07T03:20:55;28.67;;;16.17;;
67041;SDS011;53949;47.790;18.750;2024-03-07T03:23:59;29.57;;;15.70;;
67041;SDS011;53949;47.790;18.750;2024-03-07T03:27:02;34.38;;;16.85;;
67041;SDS011;53949;47.790;18.750;2024-03-07T03:30:06;31.67;;;15.55;;
67041;SDS011;53949;47.790;18.750;2024-03-07T03:33:10;28.33;;;14.33;;
67041;SDS011;53949;47.790;18.750;2024-03-07T03:36:16;29.95;;;14.77;;
67041;SDS011;53949;47.790;18.750;2024-03-07T03:39:22;26.70;;;14.30;;
67041;SDS011;53949;47.790;18.750;2024-03-07T03:42:27;29.23;;;15.00;;
67041;SDS011;53949;47.790;18.750;2024-03-07T03:45:30;26.20;;;14.02;;
67041;SDS011;53949;47.790;18.750;2024-03-07T03:48:38;28.30;;;14.60;;
67041;SDS011;53949;47.790;18.750;2024-03-07T03:51:44;26.52;;;13.57;;
67041;SDS011;53949;47.790;18.750;2024-03-07T03:54:50;29.80;;;14.82;;
67041;SDS011;53949;47.790;18.750;2024-03-07T03:57:53;24.70;;;12.63;;
67041;SDS011;53949;47.790;18.750;2024-03-07T04:00:56;25.90;;;13.82;;
67041;SDS011;53949;47.790;18.750;2024-03-07T04:04:02;27.83;;;13.75;;
67041;SDS011;53949;47.790;18.750;2024-03-07T04:07:07;28.23;;;14.50;;
67041;SDS011;53949;47.790;18.750;2024-03-07T04:10:11;26.60;;;14.27;;
67041;SDS011;53949;47.790;18.750;2024-03-07T04:13:15;30.65;;;16.23;;
67041;SDS011;53949;47.790;18.750;2024-03-07T04:16:18;27.95;;;13.93;;
67041;SDS011;53949;47.790;18.750;2024-03-07T04:19:21;30.35;;;16.40;;
67041;SDS011;53949;47.790;18.750;2024-03-07T04:22:24;31.35;;;16.30;;
67041;SDS011;53949;47.790;18.750;2024-03-07T04:25:28;30.98;;;15.07;;
67041;SDS011;53949;47.790;18.750;2024-03-07T04:28:32;28.75;;;14.48;;
67041;SDS011;53949;47.790;18.750;2024-03-07T04:31:35;24.23;;;13.27;;
67041;SDS011;53949;47.790;18.750;2024-03-07T04:34:38;22.30;;;11.55;;
67041;SDS011;53949;47.790;18.750;2024-03-07T04:37:41;21.90;;;12.43;;
67041;SDS011;53949;47.790;18.750;2024-03-07T04:40:45;25.23;;;13.50;;
67041;SDS011;53949;47.790;18.750;2024-03-07T04:43:49;28.95;;;14.63;;
67041;SDS011;53949;47.790;18.750;2024-03-07T04:46:52;31.83;;;16.73;;
67041;SDS011;53949;47.790;18.750;2024-03-07T04:50:00;31.05;;;16.62;;
67041;SDS011;53949;47.790;18.750;2024-03-07T04:53:03;31.80;;;17.12;;
67041;SDS011;53949;47.790;18.750;2024-03-07T04:56:07;37.40;;;17.33;;
67041;SDS011;53949;47.790;18.750;2024-03-07T04:59:12;37.30;;;16.95;;
67041;SDS011;53949;47.790;18.750;2024-03-07T05:02:15;31.02;;;16.17;;
67041;SDS011;53949;47.790;18.750;2024-03-07T05:05:19;31.00;;;16.10;;
67041;SDS011;53949;47.790;18.750;2024-03-07T05:08:29;32.17;;;15.25;;
67041;SDS011;53949;47.790;18.750;2024-03-07T05:11:32;30.30;;;15.70;;
67041;SDS011;53949;47.790;18.750;2024-03-07T05:14:37;31.73;;;16.45;;
67041;SDS011;53949;47.790;18.750;2024-03-07T05:17:40;33.40;;;17.55;;
67041;SDS011;53949;47.790;18.750;2024-03-07T05:20:46;32.40;;;16.65;;
67041;SDS011;53949;47.790;18.750;2024-03-07T05:23:50;32.70;;;16.35;;
67041;SDS011;53949;47.790;18.750;2024-03-07T05:26:53;33.47;;;16.10;;
67041;SDS011;53949;47.790;18.750;2024-03-07T05:29:57;31.45;;;15.07;;
67041;SDS011;53949;47.790;18.750;2024-03-07T05:33:00;27.27;;;15.60;;
67041;SDS011;53949;47.790;18.750;2024-03-07T05:36:05;31.77;;;16.60;;
67041;SDS011;53949;47.790;18.750;2024-03-07T05:39:17;31.77;;;16.30;;
67041;SDS011;53949;47.790;18.750;2024-03-07T05:42:20;32.90;;;16.10;;
67041;SDS011;53949;47.790;18.750;2024-03-07T05:45:23;31.12;;;16.02;;
67041;SDS011;53949;47.790;18.750;2024-03-07T05:48:26;33.25;;;16.80;;
67041;SDS011;53949;47.790;18.750;2024-03-07T05:51:29;27.83;;;14.82;;
67041;SDS011;53949;47.790;18.750;2024-03-07T05:54:33;31.62;;;16.73;;
67041;SDS011;53949;47.790;18.750;2024-03-07T05:57:36;27.92;;;15.48;;
67041;SDS011;53949;47.790;18.750;2024-03-07T06:00:44;30.83;;;15.70;;
67041;SDS011;53949;47.790;18.750;2024-03-07T06:03:52;34.08;;;15.50;;
67041;SDS011;53949;47.790;18.750;2024-03-07T06:06:55;30.92;;;15.45;;
67041;SDS011;53949;47.790;18.750;2024-03-07T06:09:58;30.15;;;16.23;;
67041;SDS011;53949;47.790;18.750;2024-03-07T06:13:02;29.17;;;14.93;;
67041;SDS011;53949;47.790;18.750;2024-03-07T06:16:12;28.17;;;15.05;;
67041;SDS011;53949;47.790;18.750;2024-03-07T06:19:16;26.62;;;14.57;;
67041;SDS011;53949;47.790;18.750;2024-03-07T06:22:20;29.42;;;14.57;;
67041;SDS011;53949;47.790;18.750;2024-03-07T06:25:23;28.48;;;14.80;;
67041;SDS011;53949;47.790;18.750;2024-03-07T06:28:38;31.58;;;14.48;;
67041;SDS011;53949;47.790;18.750;2024-03-07T06:31:42;31.58;;;15.10;;
67041;SDS011;53949;47.790;18.750;2024-03-07T06:34:45;25.40;;;13.15;;
67041;SDS011;53949;47.790;18.750;2024-03-07T06:37:49;21.20;;;11.10;;
67041;SDS011;53949;47.790;18.750;2024-03-07T06:40:52;23.92;;;11.57;;
67041;SDS011;53949;47.790;18.750;2024-03-07T06:43:55;15.80;;;10.35;;
67041;SDS011;53949;47.790;18.750;2024-03-07T06:47:00;17.20;;;9.93;;
67041;SDS011;53949;47.790;18.750;2024-03-07T06:50:04;17.87;;;9.70;;
67041;SDS011;53949;47.790;18.750;2024-03-07T06:53:16;18.02;;;10.60;;
67041;SDS011;53949;47.790;18.750;2024-03-07T06:56:20;19.10;;;9.70;;
67041;SDS011;53949;47.790;18.750;2024-03-07T06:59:25;19.58;;;9.73;;
67041;SDS011;53949;47.790;18.750;2024-03-07T07:02:28;22.23;;;11.35;;
67041;SDS011;53949;47.790;18.750;2024-03-07T07:05:34;19.02;;;10.93;;
67041;SDS011;53949;47.790;18.750;2024-03-07T07:08:37;21.08;;;10.70;;
67041;SDS011;53949;47.790;18.750;2024-03-07T07:11:41;19.23;;;9.75;;
67041;SDS011;53949;47.790;18.750;2024-03-07T07:14:49;20.30;;;11.00;;
67041;SDS011;53949;47.790;18.750;2024-03-07T07:17:52;19.15;;;10.55;;
67041;SDS011;53949;47.790;18.750;2024-03-07T07:20:55;19.25;;;10.45;;
67041;SDS011;53949;47.790;18.750;2024-03-07T07:23:59;18.75;;;10.75;;
67041;SDS011;53949;47.790;18.750;2024-03-07T07:27:02;21.52;;;12.40;;
67041;SDS011;53949;47.790;18.750;2024-03-07T07:30:06;20.33;;;10.60;;
67041;SDS011;53949;47.790;18.750;2024-03-07T07:33:09;18.55;;;10.60;;
67041;SDS011;53949;47.790;18.750;2024-03-07T07:36:13;19.55;;;11.12;;
67041;SDS011;53949;47.790;18.750;2024-03-07T07:39:16;18.75;;;10.75;;
67041;SDS011;53949;47.790;18.750;2024-03-07T07:42:20;19.83;;;10.85;;
67041;SDS011;53949;47.790;18.750;2024-03-07T07:45:23;21.65;;;10.80;;
67041;SDS011;53949;47.790;18.750;2024-03-07T07:48:26;17.23;;;10.07;;
67041;SDS011;53949;47.790;18.750;2024-03-07T07:51:30;16.60;;;9.85;;
67041;SDS011;53949;47.790;18.750;2024-03-07T07:54:33;16.87;;;9.23;;
67041;SDS011;53949;47.790;18.750;2024-03-07T07:57:37;18.55;;;10.32;;
67041;SDS011;53949;47.790;18.750;2024-03-07T08:00:42;19.15;;;9.60;;
67041;SDS011;53949;47.790;18.750;2024-03-07T08:03:48;15.13;;;8.75;;
67041;SDS011;53949;47.790;18.750;2024-03-07T08:06:50;16.05;;;8.70;;
67041;SDS011;53949;47.790;18.750;2024-03-07T08:09:54;9.05;;;6.32;;
67041;SDS011;53949;47.790;18.750;2024-03-07T08:12:57;16.45;;;9.55;;
67041;SDS011;53949;47.790;18.750;2024-03-07T08:16:01;15.73;;;8.53;;
67041;SDS011;53949;47.790;18.750;2024-03-07T08:19:05;13.73;;;7.80;;
67041;SDS011;53949;47.790;18.750;2024-03-07T08:22:09;13.00;;;7.97;;
67041;SDS011;53949;47.790;18.750;2024-03-07T08:25:13;12.85;;;7.78;;
67041;SDS011;53949;47.790;18.750;2024-03-07T08:28:17;13.93;;;7.57;;
67041;SDS011;53949;47.790;18.750;2024-03-07T08:31:20;15.63;;;5.20;;
67041;SDS011;53949;47.790;18.750;2024-03-07T08:34:24;6.25;;;4.50;;
67041;SDS011;53949;47.790;18.750;2024-03-07T08:37:27;4.30;;;3.85;;
67041;SDS011;53949;47.790;18.750;2024-03-07T08:40:30;3.62;;;3.22;;
67041;SDS011;53949;47.790;18.750;2024-03-07T08:43:35;3.92;;;3.28;;
67041;SDS011;53949;47.790;18.750;2024-03-07T08:46:40;4.37;;;3.45;;
67041;SDS011;53949;47.790;18.750;2024-03-07T08:49:44;4.43;;;3.47;;
67041;SDS011;53949;47.790;18.750;2024-03-07T08:52:48;3.00;;;2.60;;
67041;SDS011;53949;47.790;18.750;2024-03-07T08:55:53;3.47;;;2.78;;
67041;SDS011;53949;47.790;18.750;2024-03-07T08:58:56;6.12;;;3.30;;
67041;SDS011;53949;47.790;18.750;2024-03-07T09:01:59;7.30;;;3.60;;
67041;SDS011;53949;47.790;18.750;2024-03-07T09:05:04;4.07;;;3.10;;
67041;SDS011;53949;47.790;18.750;2024-03-07T09:08:08;3.92;;;3.10;;
67041;SDS011;53949;47.790;18.750;2024-03-07T09:11:11;4.32;;;3.08;;
67041;SDS011;53949;47.790;18.750;2024-03-07T09:14:15;3.40;;;3.10;;
67041;SDS011;53949;47.790;18.750;2024-03-07T09:17:19;4.12;;;3.53;;
67041;SDS011;53949;47.790;18.750;2024-03-07T09:20:23;4.22;;;3.20;;
67041;SDS011;53949;47.790;18.750;2024-03-07T09:23:27;3.60;;;3.30;;
67041;SDS011;53949;47.790;18.750;2024-03-07T09:26:30;5.35;;;3.72;;
67041;SDS011;53949;47.790;18.750;2024-03-07T09:29:33;3.83;;;3.33;;
67041;SDS011;53949;47.790;18.750;2024-03-07T09:32:42;5.20;;;3.37;;
67041;SDS011;53949;47.790;18.750;2024-03-07T09:35:47;8.18;;;3.85;;
67041;SDS011;53949;47.790;18.750;2024-03-07T09:38:51;5.50;;;3.77;;
67041;SDS011;53949;47.790;18.750;2024-03-07T09:41:54;8.57;;;3.45;;
67041;SDS011;53949;47.790;18.750;2024-03-07T09:44:59;7.47;;;3.60;;
67041;SDS011;53949;47.790;18.750;2024-03-07T09:48:04;4.80;;;3.75;;
67041;SDS011;53949;47.790;18.750;2024-03-07T09:51:08;6.25;;;4.47;;
67041;SDS011;53949;47.790;18.750;2024-03-07T09:54:12;6.25;;;3.70;;
67041;SDS011;53949;47.790;18.750;2024-03-07T09:57:17;5.72;;;3.67;;
67041;SDS011;53949;47.790;18.750;2024-03-07T10:00:20;4.65;;;3.72;;
67041;SDS011;53949;47.790;18.750;2024-03-07T10:03:30;6.97;;;3.95;;
67041;SDS011;53949;47.790;18.750;2024-03-07T10:06:34;4.28;;;3.58;;
67041;SDS011;53949;47.790;18.750;2024-03-07T10:09:39;3.90;;;3.50;;
67041;SDS011;53949;47.790;18.750;2024-03-07T10:15:48;6.10;;;3.83;;
67041;SDS011;53949;47.790;18.750;2024-03-07T10:18:51;5.70;;;4.10;;
67041;SDS011;53949;47.790;18.750;2024-03-07T10:21:54;5.22;;;4.10;;
67041;SDS011;53949;47.790;18.750;2024-03-07T10:25:02;3.95;;;3.47;;
67041;SDS011;53949;47.790;18.750;2024-03-07T10:28:06;5.83;;;4.50;;
67041;SDS011;53949;47.790;18.750;2024-03-07T10:31:27;5.22;;;4.07;;
67041;SDS011;53949;47.790;18.750;2024-03-07T10:34:33;4.50;;;3.65;;
67041;SDS011;53949;47.790;18.750;2024-03-07T10:37:36;10.50;;;4.55;;
67041;SDS011;53949;47.790;18.750;2024-03-07T10:40:40;11.57;;;4.78;;
67041;SDS011;53949;47.790;18.750;2024-03-07T10:43:46;7.90;;;4.18;;
67041;SDS011;53949;47.790;18.750;2024-03-07T10:46:55;9.57;;;4.62;;
67041;SDS011;53949;47.790;18.750;2024-03-07T10:50:04;4.95;;;3.78;;
67041;SDS011;53949;47.790;18.750;2024-03-07T10:59:38;6.37;;;3.87;;
67041;SDS011;53949;47.790;18.750;2024-03-07T11:02:48;4.78;;;3.67;;
67041;SDS011;53949;47.790;18.750;2024-03-07T11:05:56;6.12;;;4.10;;
67041;SDS011;53949;47.790;18.750;2024-03-07T11:09:00;6.18;;;4.95;;
67041;SDS011;53949;47.790;18.750;2024-03-07T11:12:13;5.32;;;4.22;;
67041;SDS011;53949;47.790;18.750;2024-03-07T11:15:17;5.65;;;4.30;;
67041;SDS011;53949;47.790;18.750;2024-03-07T11:18:23;4.47;;;3.90;;
67041;SDS011;53949;47.790;18.750;2024-03-07T11:21:41;5.80;;;4.35;;
67041;SDS011;53949;47.790;18.750;2024-03-07T11:25:02;5.45;;;4.43;;
67041;SDS011;53949;47.790;18.750;2024-03-07T11:28:10;5.70;;;4.43;;
67041;SDS011;53949;47.790;18.750;2024-03-07T11:31:25;6.72;;;4.43;;
67041;SDS011;53949;47.790;18.750;2024-03-07T11:34:33;6.35;;;4.72;;
67041;SDS011;53949;47.790;18.750;2024-03-07T11:37:41;7.00;;;4.47;;
67041;SDS011;53949;47.790;18.750;2024-03-07T11:40:51;5.68;;;4.37;;
67041;SDS011;53949;47.790;18.750;2024-03-07T11:43:55;6.55;;;4.32;;
67041;SDS011;53949;47.790;18.750;2024-03-07T11:46:59;5.82;;;4.53;;
67041;SDS011;53949;47.790;18.750;2024-03-07T11:50:05;6.68;;;4.87;;
67041;SDS011;53949;47.790;18.750;2024-03-07T11:53:15;5.03;;;4.37;;
67041;SDS011;53949;47.790;18.750;2024-03-07T11:56:21;7.95;;;4.40;;
67041;SDS011;53949;47.790;18.750;2024-03-07T11:59:24;6.05;;;4.43;;
67041;SDS011;53949;47.790;18.750;2024-03-07T12:02:28;6.20;;;4.07;;
67041;SDS011;53949;47.790;18.750;2024-03-07T12:05:32;5.47;;;4.37;;
67041;SDS011;53949;47.790;18.750;2024-03-07T12:08:36;7.30;;;4.85;;
67041;SDS011;53949;47.790;18.750;2024-03-07T12:11:39;6.15;;;4.80;;
67041;SDS011;53949;47.790;18.750;2024-03-07T12:14:45;7.03;;;4.90;;
67041;SDS011;53949;47.790;18.750;2024-03-07T12:17:49;5.53;;;4.80;;
67041;SDS011;53949;47.790;18.750;2024-03-07T12:20:53;6.93;;;5.03;;
67041;SDS011;53949;47.790;18.750;2024-03-07T12:27:05;6.78;;;4.53;;
67041;SDS011;53949;47.790;18.750;2024-03-07T12:30:15;6.80;;;4.72;;
67041;SDS011;53949;47.790;18.750;2024-03-07T12:33:22;6.72;;;4.30;;
67041;SDS011;53949;47.790;18.750;2024-03-07T12:36:29;5.75;;;4.25;;
67041;SDS011;53949;47.790;18.750;2024-03-07T12:39:37;6.05;;;4.35;;
67041;SDS011;53949;47.790;18.750;2024-03-07T12:42:51;5.85;;;4.32;;
67041;SDS011;53949;47.790;18.750;2024-03-07T12:45:56;5.62;;;4.25;;
67041;SDS011;53949;47.790;18.750;2024-03-07T12:49:01;9.50;;;4.80;;
67041;SDS011;53949;47.790;18.750;2024-03-07T12:52:05;10.18;;;4.65;;
67041;SDS011;53949;47.790;18.750;2024-03-07T12:58:15;6.60;;;4.27;;
67041;SDS011;53949;47.790;18.750;2024-03-07T13:01:20;8.40;;;4.55;;
67041;SDS011;53949;47.790;18.750;2024-03-07T13:04:23;10.50;;;5.12;;
67041;SDS011;53949;47.790;18.750;2024-03-07T13:07:31;7.07;;;4.87;;
67041;SDS011;53949;47.790;18.750;2024-03-07T13:10:34;5.53;;;4.53;;
67041;SDS011;53949;47.790;18.750;2024-03-07T13:13:37;5.07;;;3.95;;
67041;SDS011;53949;47.790;18.750;2024-03-07T13:16:40;7.68;;;4.53;;
67041;SDS011;53949;47.790;18.750;2024-03-07T13:22:53;8.85;;;4.40;;
67041;SDS011;53949;47.790;18.750;2024-03-07T13:25:57;5.95;;;4.57;;
67041;SDS011;53949;47.790;18.750;2024-03-07T13:28:59;5.85;;;4.57;;
67041;SDS011;53949;47.790;18.750;2024-03-07T13:32:04;6.30;;;4.60;;
67041;SDS011;53949;47.790;18.750;2024-03-07T13:35:07;5.87;;;4.35;;
67041;SDS011;53949;47.790;18.750;2024-03-07T13:38:14;9.27;;;4.80;;
67041;SDS011;53949;47.790;18.750;2024-03-07T13:41:19;5.87;;;4.12;;
67041;SDS011;53949;47.790;18.750;2024-03-07T13:44:22;8.52;;;4.57;;
67041;SDS011;53949;47.790;18.750;2024-03-07T13:47:27;10.73;;;5.12;;
67041;SDS011;53949;47.790;18.750;2024-03-07T13:50:32;6.22;;;4.00;;
67041;SDS011;53949;47.790;18.750;2024-03-07T13:53:56;7.53;;;5.22;;
67041;SDS011;53949;47.790;18.750;2024-03-07T14:20:50;6.82;;;4.40;;
67041;SDS011;53949;47.790;18.750;2024-03-07T14:30:43;9.38;;;4.65;;
67041;SDS011;53949;47.790;18.750;2024-03-07T14:37:11;7.50;;;4.43;;
67041;SDS011;53949;47.790;18.750;2024-03-07T14:40:22;6.82;;;4.40;;
67041;SDS011;53949;47.790;18.750;2024-03-07T14:43:28;6.87;;;4.50;;
67041;SDS011;53949;47.790;18.750;2024-03-07T14:46:31;7.15;;;4.62;;
67041;SDS011;53949;47.790;18.750;2024-03-07T14:49:34;6.18;;;4.45;;
67041;SDS011;53949;47.790;18.750;2024-03-07T14:52:38;7.18;;;4.55;;
67041;SDS011;53949;47.790;18.750;2024-03-07T14:55:43;7.90;;;4.72;;
67041;SDS011;53949;47.790;18.750;2024-03-07T14:58:46;6.10;;;4.30;;
67041;SDS011;53949;47.790;18.750;2024-03-07T15:01:49;7.80;;;4.57;;
67041;SDS011;53949;47.790;18.750;2024-03-07T15:04:53;6.22;;;3.83;;
67041;SDS011;53949;47.790;18.750;2024-03-07T15:07:58;5.62;;;4.12;;
67041;SDS011;53949;47.790;18.750;2024-03-07T15:11:23;4.60;;;3.58;;
67041;SDS011;53949;47.790;18.750;2024-03-07T15:14:45;5.80;;;4.12;;
67041;SDS011;53949;47.790;18.750;2024-03-07T15:17:54;7.62;;;4.32;;
67041;SDS011;53949;47.790;18.750;2024-03-07T15:20:57;7.35;;;4.30;;
67041;SDS011;53949;47.790;18.750;2024-03-07T15:24:01;6.22;;;4.05;;
67041;SDS011;53949;47.790;18.750;2024-03-07T15:27:06;5.97;;;4.03;;
67041;SDS011;53949;47.790;18.750;2024-03-07T15:30:10;5.57;;;4.10;;
67041;SDS011;53949;47.790;18.750;2024-03-07T15:33:16;4.82;;;3.40;;
67041;SDS011;53949;47.790;18.750;2024-03-07T15:36:21;4.25;;;3.45;;
67041;SDS011;53949;47.790;18.750;2024-03-07T15:39:27;4.55;;;3.03;;
67041;SDS011;53949;47.790;18.750;2024-03-07T15:42:32;5.90;;;3.30;;
67041;SDS011;53949;47.790;18.750;2024-03-07T15:45:35;4.72;;;3.40;;
67041;SDS011;53949;47.790;18.750;2024-03-07T15:48:40;4.87;;;3.42;;
67041;SDS011;53949;47.790;18.750;2024-03-07T15:51:44;8.48;;;4.70;;
67041;SDS011;53949;47.790;18.750;2024-03-07T15:54:48;5.28;;;3.45;;
67041;SDS011;53949;47.790;18.750;2024-03-07T15:57:53;6.03;;;3.83;;
67041;SDS011;53949;47.790;18.750;2024-03-07T16:00:58;6.75;;;4.03;;
67041;SDS011;53949;47.790;18.750;2024-03-07T16:04:01;4.60;;;3.55;;
67041;SDS011;53949;47.790;18.750;2024-03-07T16:07:04;5.47;;;4.28;;
67041;SDS011;53949;47.790;18.750;2024-03-07T16:10:08;5.55;;;3.95;;
67041;SDS011;53949;47.790;18.750;2024-03-07T16:13:12;5.00;;;3.73;;
67041;SDS011;53949;47.790;18.750;2024-03-07T16:16:17;5.80;;;3.95;;
67041;SDS011;53949;47.790;18.750;2024-03-07T16:19:22;6.65;;;4.47;;
67041;SDS011;53949;47.790;18.750;2024-03-07T16:22:25;5.00;;;3.87;;
67041;SDS011;53949;47.790;18.750;2024-03-07T16:25:31;6.70;;;3.83;;
67041;SDS011;53949;47.790;18.750;2024-03-07T16:28:42;4.43;;;3.75;;
67041;SDS011;53949;47.790;18.750;2024-03-07T16:31:45;7.05;;;4.20;;
67041;SDS011;53949;47.790;18.750;2024-03-07T16:34:50;6.07;;;4.18;;
67041;SDS011;53949;47.790;18.750;2024-03-07T16:37:54;5.45;;;4.22;;
67041;SDS011;53949;47.790;18.750;2024-03-07T16:41:01;5.50;;;3.72;;
67041;SDS011;53949;47.790;18.750;2024-03-07T16:44:05;5.82;;;3.87;;
67041;SDS011;53949;47.790;18.750;2024-03-07T16:47:08;7.12;;;4.35;;
67041;SDS011;53949;47.790;18.750;2024-03-07T16:50:13;6.90;;;4.22;;
67041;SDS011;53949;47.790;18.750;2024-03-07T16:53:17;7.18;;;4.43;;
67041;SDS011;53949;47.790;18.750;2024-03-07T16:56:20;5.85;;;4.28;;
67041;SDS011;53949;47.790;18.750;2024-03-07T16:59:23;6.60;;;4.15;;
67041;SDS011;53949;47.790;18.750;2024-03-07T17:02:26;6.60;;;4.43;;
67041;SDS011;53949;47.790;18.750;2024-03-07T17:05:30;5.60;;;3.87;;
67041;SDS011;53949;47.790;18.750;2024-03-07T17:08:37;7.35;;;4.45;;
67041;SDS011;53949;47.790;18.750;2024-03-07T17:11:40;7.62;;;4.35;;
67041;SDS011;53949;47.790;18.750;2024-03-07T17:14:44;5.93;;;4.15;;
67041;SDS011;53949;47.790;18.750;2024-03-07T17:17:48;6.60;;;4.47;;
67041;SDS011;53949;47.790;18.750;2024-03-07T17:20:53;6.72;;;4.25;;
67041;SDS011;53949;47.790;18.750;2024-03-07T17:23:58;6.35;;;4.10;;
67041;SDS011;53949;47.790;18.750;2024-03-07T17:27:04;6.53;;;4.40;;
67041;SDS011;53949;47.790;18.750;2024-03-07T17:30:07;7.30;;;4.10;;
67041;SDS011;53949;47.790;18.750;2024-03-07T17:33:10;6.70;;;4.15;;
67041;SDS011;53949;47.790;18.750;2024-03-07T17:36:15;6.10;;;4.30;;
67041;SDS011;53949;47.790;18.750;2024-03-07T17:39:21;6.93;;;4.35;;
67041;SDS011;53949;47.790;18.750;2024-03-07T17:42:26;6.65;;;4.37;;
67041;SDS011;53949;47.790;18.750;2024-03-07T17:45:29;6.18;;;4.45;;
67041;SDS011;53949;47.790;18.750;2024-03-07T17:48:40;5.82;;;4.60;;
67041;SDS011;53949;47.790;18.750;2024-03-07T17:51:46;7.28;;;4.53;;
67041;SDS011;53949;47.790;18.750;2024-03-07T17:54:49;6.18;;;4.15;;
67041;SDS011;53949;47.790;18.750;2024-03-07T17:57:53;7.12;;;4.53;;
67041;SDS011;53949;47.790;18.750;2024-03-07T18:00:57;7.07;;;4.45;;
67041;SDS011;53949;47.790;18.750;2024-03-07T18:04:00;7.47;;;4.75;;
67041;SDS011;53949;47.790;18.750;2024-03-07T18:07:08;6.68;;;4.90;;
67041;SDS011;53949;47.790;18.750;2024-03-07T18:10:13;5.78;;;4.25;;
67041;SDS011;53949;47.790;18.750;2024-03-07T18:13:20;5.75;;;4.35;;
67041;SDS011;53949;47.790;18.750;2024-03-07T18:16:25;8.23;;;4.93;;
67041;SDS011;53949;47.790;18.750;2024-03-07T18:19:28;8.23;;;4.55;;
67041;SDS011;53949;47.790;18.750;2024-03-07T18:22:32;7.03;;;4.60;;
67041;SDS011;53949;47.790;18.750;2024-03-07T18:25:35;6.57;;;4.50;;
67041;SDS011;53949;47.790;18.750;2024-03-07T18:28:39;9.40;;;4.70;;
67041;SDS011;53949;47.790;18.750;2024-03-07T18:31:43;7.18;;;4.80;;
67041;SDS011;53949;47.790;18.750;2024-03-07T18:34:46;7.22;;;5.12;;
67041;SDS011;53949;47.790;18.750;2024-03-07T18:37:52;8.27;;;5.53;;
67041;SDS011;53949;47.790;18.750;2024-03-07T18:40:56;8.95;;;5.40;;
67041;SDS011;53949;47.790;18.750;2024-03-07T18:43:59;12.40;;;4.85;;
67041;SDS011;53949;47.790;18.750;2024-03-07T18:47:05;9.90;;;6.35;;
67041;SDS011;53949;47.790;18.750;2024-03-07T18:50:12;9.20;;;5.43;;
67041;SDS011;53949;47.790;18.750;2024-03-07T18:53:16;6.85;;;4.68;;
67041;SDS011;53949;47.790;18.750;2024-03-07T18:56:23;5.97;;;4.53;;